sensor_id;sensor_type;location;lat;lon;timestamp;P1;durP1;ratioP1;P2;durP2;ratioP2
9749;SDS011;4914;43.218;27.908;2022-10-31T00:00:03;28.83;;;19.58;;
9749;SDS011;4914;43.218;27.908;2022-10-31T00:02:32;26.20;;;18.20;;
9749;SDS011;4914;43.218;27.908;2022-10-31T00:04:59;26.70;;;17.92;;
9749;SDS011;4914;43.218;27.908;2022-10-31T00:07:25;24.95;;;19.33;;
9749;SDS011;4914;43.218;27.908;2022-10-31T00:09:54;29.88;;;19.05;;
9749;SDS011;4914;43.218;27.908;2022-10-31T00:12:20;26.05;;;19.00;;
9749;SDS011;4914;43.218;27.908;2022-10-31T00:14:47;25.02;;;19.50;;
9749;SDS011;4914;43.218;27.908;2022-10-31T00:17:14;23.75;;;18.63;;
9749;SDS011;4914;43.218;27.908;2022-10-31T00:19:41;24.83;;;19.13;;
9749;SDS011;4914;43.218;27.908;2022-10-31T00:22:08;23.98;;;18.80;;
9749;SDS011;4914;43.218;27.908;2022-10-31T00:24:35;24.27;;;18.90;;
9749;SDS011;4914;43.218;27.908;2022-10-31T00:27:03;25.38;;;19.35;;
9749;SDS011;4914;43.218;27.908;2022-10-31T00:29:30;27.10;;;19.33;;
9749;SDS011;4914;43.218;27.908;2022-10-31T00:31:56;26.38;;;19.70;;
9749;SDS011;4914;43.218;27.908;2022-10-31T00:34:23;28.10;;;18.98;;
9749;SDS011;4914;43.218;27.908;2022-10-31T00:36:50;24.35;;;19.05;;
9749;SDS011;4914;43.218;27.908;2022-10-31T00:39:17;23.50;;;17.95;;
9749;SDS011;4914;43.218;27.908;2022-10-31T00:41:44;28.08;;;19.13;;
9749;SDS011;4914;43.218;27.908;2022-10-31T00:44:12;26.75;;;18.95;;
9749;SDS011;4914;43.218;27.908;2022-10-31T00:46:39;25.80;;;19.23;;
9749;SDS011;4914;43.218;27.908;2022-10-31T00:49:05;23.02;;;18.40;;
9749;SDS011;4914;43.218;27.908;2022-10-31T00:51:32;24.42;;;19.13;;
9749;SDS011;4914;43.218;27.908;2022-10-31T00:53:59;22.70;;;19.40;;
9749;SDS011;4914;43.218;27.908;2022-10-31T00:56:26;29.63;;;19.30;;
9749;SDS011;4914;43.218;27.908;2022-10-31T00:58:53;28.40;;;19.83;;
9749;SDS011;4914;43.218;27.908;2022-10-31T01:01:21;29.50;;;20.60;;
9749;SDS011;4914;43.218;27.908;2022-10-31T01:03:49;25.67;;;20.30;;
9749;SDS011;4914;43.218;27.908;2022-10-31T01:06:17;28.27;;;20.42;;
9749;SDS011;4914;43.218;27.908;2022-10-31T01:08:43;30.70;;;20.25;;
9749;SDS011;4914;43.218;27.908;2022-10-31T01:11:13;37.70;;;20.20;;
9749;SDS011;4914;43.218;27.908;2022-10-31T01:13:41;24.40;;;19.38;;
9749;SDS011;4914;43.218;27.908;2022-10-31T01:16:10;28.45;;;19.25;;
9749;SDS011;4914;43.218;27.908;2022-10-31T01:18:39;25.67;;;20.05;;
9749;SDS011;4914;43.218;27.908;2022-10-31T01:21:06;31.73;;;20.77;;
9749;SDS011;4914;43.218;27.908;2022-10-31T01:23:34;29.83;;;21.05;;
9749;SDS011;4914;43.218;27.908;2022-10-31T01:26:03;31.50;;;20.90;;
9749;SDS011;4914;43.218;27.908;2022-10-31T01:28:33;26.00;;;20.42;;
9749;SDS011;4914;43.218;27.908;2022-10-31T01:31:01;26.58;;;19.83;;
9749;SDS011;4914;43.218;27.908;2022-10-31T01:33:29;33.17;;;20.02;;
9749;SDS011;4914;43.218;27.908;2022-10-31T01:35:57;29.13;;;19.23;;
9749;SDS011;4914;43.218;27.908;2022-10-31T01:38:24;28.17;;;19.60;;
9749;SDS011;4914;43.218;27.908;2022-10-31T01:40:51;26.35;;;19.48;;
9749;SDS011;4914;43.218;27.908;2022-10-31T01:43:18;32.97;;;20.33;;
9749;SDS011;4914;43.218;27.908;2022-10-31T01:45:46;34.75;;;20.65;;
9749;SDS011;4914;43.218;27.908;2022-10-31T01:48:19;31.73;;;20.08;;
9749;SDS011;4914;43.218;27.908;2022-10-31T01:50:49;27.95;;;20.35;;
9749;SDS011;4914;43.218;27.908;2022-10-31T01:53:21;27.65;;;19.67;;
9749;SDS011;4914;43.218;27.908;2022-10-31T01:55:49;31.00;;;21.02;;
9749;SDS011;4914;43.218;27.908;2022-10-31T01:58:18;31.90;;;20.73;;
9749;SDS011;4914;43.218;27.908;2022-10-31T02:00:50;28.95;;;20.83;;
9749;SDS011;4914;43.218;27.908;2022-10-31T02:03:20;29.77;;;20.75;;
9749;SDS011;4914;43.218;27.908;2022-10-31T02:05:48;27.30;;;20.50;;
9749;SDS011;4914;43.218;27.908;2022-10-31T02:08:17;27.75;;;21.17;;
9749;SDS011;4914;43.218;27.908;2022-10-31T02:10:50;30.25;;;20.60;;
9749;SDS011;4914;43.218;27.908;2022-10-31T02:13:18;28.83;;;20.35;;
9749;SDS011;4914;43.218;27.908;2022-10-31T02:15:47;29.05;;;20.95;;
9749;SDS011;4914;43.218;27.908;2022-10-31T02:18:17;29.23;;;21.52;;
9749;SDS011;4914;43.218;27.908;2022-10-31T02:20:48;27.98;;;21.50;;
9749;SDS011;4914;43.218;27.908;2022-10-31T02:26:30;29.17;;;20.85;;
9749;SDS011;4914;43.218;27.908;2022-10-31T02:29:13;31.75;;;20.80;;
9749;SDS011;4914;43.218;27.908;2022-10-31T02:32:01;30.52;;;20.70;;
9749;SDS011;4914;43.218;27.908;2022-10-31T02:34:35;31.40;;;20.83;;
9749;SDS011;4914;43.218;27.908;2022-10-31T02:37:10;27.95;;;20.50;;
9749;SDS011;4914;43.218;27.908;2022-10-31T02:39:42;30.67;;;20.87;;
9749;SDS011;4914;43.218;27.908;2022-10-31T02:42:18;29.42;;;20.70;;
9749;SDS011;4914;43.218;27.908;2022-10-31T02:44:55;28.80;;;20.98;;
9749;SDS011;4914;43.218;27.908;2022-10-31T02:47:28;27.33;;;20.25;;
9749;SDS011;4914;43.218;27.908;2022-10-31T02:49:59;29.17;;;20.17;;
9749;SDS011;4914;43.218;27.908;2022-10-31T02:52:29;28.23;;;21.38;;
9749;SDS011;4914;43.218;27.908;2022-10-31T02:54:57;28.88;;;20.05;;
9749;SDS011;4914;43.218;27.908;2022-10-31T02:57:25;30.13;;;20.65;;
9749;SDS011;4914;43.218;27.908;2022-10-31T02:59:57;26.95;;;20.08;;
9749;SDS011;4914;43.218;27.908;2022-10-31T03:02:38;32.10;;;20.70;;
9749;SDS011;4914;43.218;27.908;2022-10-31T03:05:23;24.83;;;19.52;;
9749;SDS011;4914;43.218;27.908;2022-10-31T03:08:06;24.80;;;20.50;;
9749;SDS011;4914;43.218;27.908;2022-10-31T03:10:39;28.73;;;20.73;;
9749;SDS011;4914;43.218;27.908;2022-10-31T03:13:12;27.90;;;20.02;;
9749;SDS011;4914;43.218;27.908;2022-10-31T03:15:48;33.55;;;20.63;;
9749;SDS011;4914;43.218;27.908;2022-10-31T03:18:20;29.92;;;20.85;;
9749;SDS011;4914;43.218;27.908;2022-10-31T03:20:54;30.70;;;22.00;;
9749;SDS011;4914;43.218;27.908;2022-10-31T03:23:25;31.80;;;20.95;;
9749;SDS011;4914;43.218;27.908;2022-10-31T03:25:53;23.73;;;19.50;;
9749;SDS011;4914;43.218;27.908;2022-10-31T03:28:22;22.95;;;19.45;;
9749;SDS011;4914;43.218;27.908;2022-10-31T03:30:54;29.58;;;21.35;;
9749;SDS011;4914;43.218;27.908;2022-10-31T03:33:26;36.00;;;22.83;;
9749;SDS011;4914;43.218;27.908;2022-10-31T03:35:57;39.20;;;24.33;;
9749;SDS011;4914;43.218;27.908;2022-10-31T03:38:27;31.30;;;23.77;;
9749;SDS011;4914;43.218;27.908;2022-10-31T03:40:55;35.22;;;25.20;;
9749;SDS011;4914;43.218;27.908;2022-10-31T03:43:26;35.90;;;26.20;;
9749;SDS011;4914;43.218;27.908;2022-10-31T03:45:58;39.15;;;25.38;;
9749;SDS011;4914;43.218;27.908;2022-10-31T03:48:27;33.25;;;25.52;;
9749;SDS011;4914;43.218;27.908;2022-10-31T03:50:57;38.42;;;25.95;;
9749;SDS011;4914;43.218;27.908;2022-10-31T03:53:30;33.47;;;25.52;;
9749;SDS011;4914;43.218;27.908;2022-10-31T03:56:01;41.25;;;26.13;;
9749;SDS011;4914;43.218;27.908;2022-10-31T03:58:33;36.60;;;25.37;;
9749;SDS011;4914;43.218;27.908;2022-10-31T04:01:04;38.70;;;24.75;;
9749;SDS011;4914;43.218;27.908;2022-10-31T04:03:34;39.72;;;24.90;;
9749;SDS011;4914;43.218;27.908;2022-10-31T04:06:04;40.35;;;26.13;;
9749;SDS011;4914;43.218;27.908;2022-10-31T04:08:36;32.00;;;25.13;;
9749;SDS011;4914;43.218;27.908;2022-10-31T04:11:08;42.55;;;26.05;;
9749;SDS011;4914;43.218;27.908;2022-10-31T04:13:37;38.45;;;23.83;;
9749;SDS011;4914;43.218;27.908;2022-10-31T04:16:06;38.42;;;24.58;;
9749;SDS011;4914;43.218;27.908;2022-10-31T04:18:36;34.05;;;23.15;;
9749;SDS011;4914;43.218;27.908;2022-10-31T04:21:04;35.78;;;23.13;;
9749;SDS011;4914;43.218;27.908;2022-10-31T04:23:32;30.17;;;23.10;;
9749;SDS011;4914;43.218;27.908;2022-10-31T04:26:00;33.78;;;22.55;;
9749;SDS011;4914;43.218;27.908;2022-10-31T04:28:27;34.83;;;22.90;;
9749;SDS011;4914;43.218;27.908;2022-10-31T04:30:54;35.85;;;23.45;;
9749;SDS011;4914;43.218;27.908;2022-10-31T04:33:21;37.35;;;24.23;;
9749;SDS011;4914;43.218;27.908;2022-10-31T04:35:49;38.42;;;23.33;;
9749;SDS011;4914;43.218;27.908;2022-10-31T04:38:16;41.08;;;24.02;;
9749;SDS011;4914;43.218;27.908;2022-10-31T04:40:44;43.30;;;24.20;;
9749;SDS011;4914;43.218;27.908;2022-10-31T04:43:11;43.25;;;24.83;;
9749;SDS011;4914;43.218;27.908;2022-10-31T04:45:38;35.42;;;24.58;;
9749;SDS011;4914;43.218;27.908;2022-10-31T04:48:05;38.47;;;24.80;;
9749;SDS011;4914;43.218;27.908;2022-10-31T04:50:31;41.20;;;25.63;;
9749;SDS011;4914;43.218;27.908;2022-10-31T04:53:00;47.88;;;27.00;;
9749;SDS011;4914;43.218;27.908;2022-10-31T04:55:26;42.97;;;26.75;;
9749;SDS011;4914;43.218;27.908;2022-10-31T04:57:53;41.70;;;27.70;;
9749;SDS011;4914;43.218;27.908;2022-10-31T05:00:20;42.58;;;27.92;;
9749;SDS011;4914;43.218;27.908;2022-10-31T05:02:48;43.70;;;30.08;;
9749;SDS011;4914;43.218;27.908;2022-10-31T05:05:17;42.47;;;32.47;;
9749;SDS011;4914;43.218;27.908;2022-10-31T05:07:45;49.90;;;34.38;;
9749;SDS011;4914;43.218;27.908;2022-10-31T05:10:15;50.53;;;34.05;;
9749;SDS011;4914;43.218;27.908;2022-10-31T05:12:47;47.22;;;34.05;;
9749;SDS011;4914;43.218;27.908;2022-10-31T05:15:14;51.38;;;33.97;;
9749;SDS011;4914;43.218;27.908;2022-10-31T05:17:42;53.35;;;34.63;;
9749;SDS011;4914;43.218;27.908;2022-10-31T05:20:09;53.65;;;34.08;;
9749;SDS011;4914;43.218;27.908;2022-10-31T05:22:36;52.90;;;34.25;;
9749;SDS011;4914;43.218;27.908;2022-10-31T05:25:08;54.30;;;34.78;;
9749;SDS011;4914;43.218;27.908;2022-10-31T05:27:36;55.83;;;37.92;;
9749;SDS011;4914;43.218;27.908;2022-10-31T05:30:05;54.85;;;35.05;;
9749;SDS011;4914;43.218;27.908;2022-10-31T05:32:36;52.05;;;35.20;;
9749;SDS011;4914;43.218;27.908;2022-10-31T05:35:03;54.85;;;36.05;;
9749;SDS011;4914;43.218;27.908;2022-10-31T05:37:33;56.50;;;34.88;;
9749;SDS011;4914;43.218;27.908;2022-10-31T05:40:00;57.95;;;35.08;;
9749;SDS011;4914;43.218;27.908;2022-10-31T05:42:27;57.35;;;33.65;;
9749;SDS011;4914;43.218;27.908;2022-10-31T05:44:55;55.25;;;35.53;;
9749;SDS011;4914;43.218;27.908;2022-10-31T05:47:22;47.38;;;33.83;;
9749;SDS011;4914;43.218;27.908;2022-10-31T05:49:49;53.17;;;33.35;;
9749;SDS011;4914;43.218;27.908;2022-10-31T05:52:16;45.38;;;32.78;;
9749;SDS011;4914;43.218;27.908;2022-10-31T05:54:43;54.65;;;33.58;;
9749;SDS011;4914;43.218;27.908;2022-10-31T05:57:10;58.25;;;33.53;;
9749;SDS011;4914;43.218;27.908;2022-10-31T05:59:37;43.50;;;30.52;;
9749;SDS011;4914;43.218;27.908;2022-10-31T06:02:05;44.42;;;30.52;;
9749;SDS011;4914;43.218;27.908;2022-10-31T06:04:32;53.78;;;30.70;;
9749;SDS011;4914;43.218;27.908;2022-10-31T06:06:59;46.35;;;27.65;;
9749;SDS011;4914;43.218;27.908;2022-10-31T06:09:26;43.25;;;26.85;;
9749;SDS011;4914;43.218;27.908;2022-10-31T06:11:52;48.33;;;28.20;;
9749;SDS011;4914;43.218;27.908;2022-10-31T06:14:19;37.97;;;27.63;;
9749;SDS011;4914;43.218;27.908;2022-10-31T06:16:46;48.95;;;28.00;;
9749;SDS011;4914;43.218;27.908;2022-10-31T06:19:14;38.42;;;25.73;;
9749;SDS011;4914;43.218;27.908;2022-10-31T06:21:41;51.20;;;28.63;;
9749;SDS011;4914;43.218;27.908;2022-10-31T06:24:08;46.25;;;28.30;;
9749;SDS011;4914;43.218;27.908;2022-10-31T06:26:35;49.35;;;27.98;;
9749;SDS011;4914;43.218;27.908;2022-10-31T06:29:02;44.08;;;27.33;;
9749;SDS011;4914;43.218;27.908;2022-10-31T06:31:28;40.08;;;25.52;;
9749;SDS011;4914;43.218;27.908;2022-10-31T06:33:55;48.72;;;25.15;;
9749;SDS011;4914;43.218;27.908;2022-10-31T06:36:24;43.17;;;26.45;;
9749;SDS011;4914;43.218;27.908;2022-10-31T06:38:50;38.85;;;24.80;;
9749;SDS011;4914;43.218;27.908;2022-10-31T06:41:17;46.63;;;27.73;;
9749;SDS011;4914;43.218;27.908;2022-10-31T06:43:45;46.17;;;26.55;;
9749;SDS011;4914;43.218;27.908;2022-10-31T06:46:12;39.65;;;25.23;;
9749;SDS011;4914;43.218;27.908;2022-10-31T06:48:40;36.92;;;25.92;;
9749;SDS011;4914;43.218;27.908;2022-10-31T06:51:07;40.13;;;27.10;;
9749;SDS011;4914;43.218;27.908;2022-10-31T06:53:35;50.72;;;30.25;;
9749;SDS011;4914;43.218;27.908;2022-10-31T06:56:02;48.67;;;29.42;;
9749;SDS011;4914;43.218;27.908;2022-10-31T06:58:29;43.13;;;28.27;;
9749;SDS011;4914;43.218;27.908;2022-10-31T07:00:58;43.97;;;26.70;;
9749;SDS011;4914;43.218;27.908;2022-10-31T07:03:25;48.60;;;26.98;;
9749;SDS011;4914;43.218;27.908;2022-10-31T07:05:54;54.83;;;27.23;;
9749;SDS011;4914;43.218;27.908;2022-10-31T07:08:21;45.97;;;27.55;;
9749;SDS011;4914;43.218;27.908;2022-10-31T07:10:52;41.67;;;28.02;;
9749;SDS011;4914;43.218;27.908;2022-10-31T07:13:20;43.85;;;27.70;;
9749;SDS011;4914;43.218;27.908;2022-10-31T07:15:50;37.25;;;25.23;;
9749;SDS011;4914;43.218;27.908;2022-10-31T07:18:18;38.20;;;24.10;;
9749;SDS011;4914;43.218;27.908;2022-10-31T07:20:45;26.08;;;22.95;;
9749;SDS011;4914;43.218;27.908;2022-10-31T07:23:12;32.63;;;23.55;;
9749;SDS011;4914;43.218;27.908;2022-10-31T07:25:39;29.05;;;23.27;;
9749;SDS011;4914;43.218;27.908;2022-10-31T07:28:08;30.83;;;24.33;;
9749;SDS011;4914;43.218;27.908;2022-10-31T07:30:35;38.15;;;26.65;;
9749;SDS011;4914;43.218;27.908;2022-10-31T07:33:03;36.15;;;26.17;;
9749;SDS011;4914;43.218;27.908;2022-10-31T07:35:30;40.03;;;26.67;;
9749;SDS011;4914;43.218;27.908;2022-10-31T07:37:57;45.80;;;28.38;;
9749;SDS011;4914;43.218;27.908;2022-10-31T07:40:33;36.45;;;24.25;;
9749;SDS011;4914;43.218;27.908;2022-10-31T07:43:00;41.53;;;24.63;;
9749;SDS011;4914;43.218;27.908;2022-10-31T07:45:28;41.75;;;23.33;;
9749;SDS011;4914;43.218;27.908;2022-10-31T07:47:55;27.63;;;20.67;;
9749;SDS011;4914;43.218;27.908;2022-10-31T07:50:23;29.02;;;19.33;;
9749;SDS011;4914;43.218;27.908;2022-10-31T07:52:57;33.55;;;20.30;;
9749;SDS011;4914;43.218;27.908;2022-10-31T07:55:25;29.77;;;20.25;;
9749;SDS011;4914;43.218;27.908;2022-10-31T07:57:56;27.13;;;20.05;;
9749;SDS011;4914;43.218;27.908;2022-10-31T08:00:24;31.00;;;19.67;;
9749;SDS011;4914;43.218;27.908;2022-10-31T08:02:59;28.42;;;18.75;;
9749;SDS011;4914;43.218;27.908;2022-10-31T08:05:26;29.58;;;18.95;;
9749;SDS011;4914;43.218;27.908;2022-10-31T08:07:53;24.33;;;17.13;;
9749;SDS011;4914;43.218;27.908;2022-10-31T08:10:21;24.38;;;17.20;;
9749;SDS011;4914;43.218;27.908;2022-10-31T08:12:54;30.25;;;20.20;;
9749;SDS011;4914;43.218;27.908;2022-10-31T08:15:22;21.75;;;18.58;;
9749;SDS011;4914;43.218;27.908;2022-10-31T08:17:49;25.67;;;18.70;;
9749;SDS011;4914;43.218;27.908;2022-10-31T08:20:17;27.90;;;17.80;;
9749;SDS011;4914;43.218;27.908;2022-10-31T08:22:51;24.75;;;18.13;;
9749;SDS011;4914;43.218;27.908;2022-10-31T08:25:19;24.60;;;19.15;;
9749;SDS011;4914;43.218;27.908;2022-10-31T08:27:48;22.40;;;18.88;;
9749;SDS011;4914;43.218;27.908;2022-10-31T08:30:16;25.95;;;18.58;;
9749;SDS011;4914;43.218;27.908;2022-10-31T08:32:43;27.88;;;17.75;;
9749;SDS011;4914;43.218;27.908;2022-10-31T08:35:10;22.75;;;17.92;;
9749;SDS011;4914;43.218;27.908;2022-10-31T08:37:38;29.13;;;18.20;;
9749;SDS011;4914;43.218;27.908;2022-10-31T08:40:05;24.92;;;18.75;;
9749;SDS011;4914;43.218;27.908;2022-10-31T08:42:32;32.63;;;17.30;;
9749;SDS011;4914;43.218;27.908;2022-10-31T08:44:59;25.60;;;15.93;;
9749;SDS011;4914;43.218;27.908;2022-10-31T08:47:26;23.65;;;17.27;;
9749;SDS011;4914;43.218;27.908;2022-10-31T08:49:53;24.70;;;15.73;;
9749;SDS011;4914;43.218;27.908;2022-10-31T08:52:22;24.02;;;15.50;;
9749;SDS011;4914;43.218;27.908;2022-10-31T08:54:51;23.15;;;16.17;;
9749;SDS011;4914;43.218;27.908;2022-10-31T08:57:18;27.98;;;17.00;;
9749;SDS011;4914;43.218;27.908;2022-10-31T08:59:45;25.92;;;16.65;;
9749;SDS011;4914;43.218;27.908;2022-10-31T09:02:12;28.63;;;17.15;;
9749;SDS011;4914;43.218;27.908;2022-10-31T09:04:39;24.85;;;16.60;;
9749;SDS011;4914;43.218;27.908;2022-10-31T09:07:05;26.30;;;17.17;;
9749;SDS011;4914;43.218;27.908;2022-10-31T09:09:32;28.55;;;16.92;;
9749;SDS011;4914;43.218;27.908;2022-10-31T09:12:00;37.17;;;17.58;;
9749;SDS011;4914;43.218;27.908;2022-10-31T09:14:27;26.58;;;16.88;;
9749;SDS011;4914;43.218;27.908;2022-10-31T09:16:54;30.10;;;16.92;;
9749;SDS011;4914;43.218;27.908;2022-10-31T09:19:21;38.17;;;16.20;;
9749;SDS011;4914;43.218;27.908;2022-10-31T09:21:51;28.67;;;15.98;;
9749;SDS011;4914;43.218;27.908;2022-10-31T09:24:18;21.30;;;14.48;;
9749;SDS011;4914;43.218;27.908;2022-10-31T09:26:45;19.10;;;14.18;;
9749;SDS011;4914;43.218;27.908;2022-10-31T09:29:13;23.45;;;14.27;;
9749;SDS011;4914;43.218;27.908;2022-10-31T09:31:40;21.45;;;13.43;;
9749;SDS011;4914;43.218;27.908;2022-10-31T09:34:07;22.45;;;14.30;;
9749;SDS011;4914;43.218;27.908;2022-10-31T09:36:34;19.23;;;11.43;;
9749;SDS011;4914;43.218;27.908;2022-10-31T09:39:01;22.95;;;12.15;;
9749;SDS011;4914;43.218;27.908;2022-10-31T09:41:29;17.13;;;12.10;;
9749;SDS011;4914;43.218;27.908;2022-10-31T09:44:07;17.42;;;11.57;;
9749;SDS011;4914;43.218;27.908;2022-10-31T09:46:47;15.32;;;11.40;;
9749;SDS011;4914;43.218;27.908;2022-10-31T09:52:18;12.93;;;10.90;;
9749;SDS011;4914;43.218;27.908;2022-10-31T09:54:50;19.83;;;11.75;;
9749;SDS011;4914;43.218;27.908;2022-10-31T09:57:22;19.75;;;11.88;;
9749;SDS011;4914;43.218;27.908;2022-10-31T09:59:51;14.40;;;11.63;;
9749;SDS011;4914;43.218;27.908;2022-10-31T10:02:21;14.75;;;11.73;;
9749;SDS011;4914;43.218;27.908;2022-10-31T10:04:53;14.82;;;11.95;;
9749;SDS011;4914;43.218;27.908;2022-10-31T10:07:25;14.38;;;12.48;;
9749;SDS011;4914;43.218;27.908;2022-10-31T10:09:59;14.30;;;11.52;;
9749;SDS011;4914;43.218;27.908;2022-10-31T10:12:31;17.70;;;11.75;;
9749;SDS011;4914;43.218;27.908;2022-10-31T10:15:16;15.52;;;10.43;;
9749;SDS011;4914;43.218;27.908;2022-10-31T10:18:01;15.05;;;11.13;;
9749;SDS011;4914;43.218;27.908;2022-10-31T10:20:40;19.85;;;10.98;;
9749;SDS011;4914;43.218;27.908;2022-10-31T10:26:10;13.50;;;10.65;;
9749;SDS011;4914;43.218;27.908;2022-10-31T10:28:43;19.27;;;10.60;;
9749;SDS011;4914;43.218;27.908;2022-10-31T10:31:14;16.75;;;10.27;;
9749;SDS011;4914;43.218;27.908;2022-10-31T10:33:48;14.18;;;9.93;;
9749;SDS011;4914;43.218;27.908;2022-10-31T10:36:25;15.98;;;10.30;;
9749;SDS011;4914;43.218;27.908;2022-10-31T10:38:58;13.23;;;10.95;;
9749;SDS011;4914;43.218;27.908;2022-10-31T10:41:27;18.27;;;11.07;;
9749;SDS011;4914;43.218;27.908;2022-10-31T10:43:57;16.98;;;11.60;;
9749;SDS011;4914;43.218;27.908;2022-10-31T10:46:24;14.65;;;11.65;;
9749;SDS011;4914;43.218;27.908;2022-10-31T10:49:17;19.80;;;11.55;;
9749;SDS011;4914;43.218;27.908;2022-10-31T10:51:46;17.50;;;11.13;;
9749;SDS011;4914;43.218;27.908;2022-10-31T10:54:24;16.67;;;10.52;;
9749;SDS011;4914;43.218;27.908;2022-10-31T10:57:12;14.45;;;10.15;;
9749;SDS011;4914;43.218;27.908;2022-10-31T10:59:48;13.50;;;9.70;;
9749;SDS011;4914;43.218;27.908;2022-10-31T11:02:16;13.68;;;9.38;;
9749;SDS011;4914;43.218;27.908;2022-10-31T11:04:48;12.02;;;9.18;;
9749;SDS011;4914;43.218;27.908;2022-10-31T11:07:18;11.88;;;8.68;;
9749;SDS011;4914;43.218;27.908;2022-10-31T11:09:45;12.50;;;8.98;;
9749;SDS011;4914;43.218;27.908;2022-10-31T11:12:16;11.43;;;8.70;;
9749;SDS011;4914;43.218;27.908;2022-10-31T11:14:47;11.40;;;8.32;;
9749;SDS011;4914;43.218;27.908;2022-10-31T11:17:21;14.45;;;9.15;;
9749;SDS011;4914;43.218;27.908;2022-10-31T11:20:06;13.23;;;9.07;;
9749;SDS011;4914;43.218;27.908;2022-10-31T11:22:55;13.52;;;8.85;;
9749;SDS011;4914;43.218;27.908;2022-10-31T11:25:28;14.27;;;8.95;;
9749;SDS011;4914;43.218;27.908;2022-10-31T11:28:01;13.68;;;8.57;;
9749;SDS011;4914;43.218;27.908;2022-10-31T11:30:29;12.35;;;8.18;;
9749;SDS011;4914;43.218;27.908;2022-10-31T11:32:57;13.23;;;8.55;;
9749;SDS011;4914;43.218;27.908;2022-10-31T11:35:26;14.20;;;8.82;;
9749;SDS011;4914;43.218;27.908;2022-10-31T11:37:53;11.40;;;8.90;;
9749;SDS011;4914;43.218;27.908;2022-10-31T11:40:25;24.35;;;9.60;;
9749;SDS011;4914;43.218;27.908;2022-10-31T11:42:54;12.23;;;9.20;;
9749;SDS011;4914;43.218;27.908;2022-10-31T11:45:32;11.20;;;10.10;;
9749;SDS011;4914;43.218;27.908;2022-10-31T11:48:02;19.45;;;9.38;;
9749;SDS011;4914;43.218;27.908;2022-10-31T11:50:42;14.52;;;9.43;;
9749;SDS011;4914;43.218;27.908;2022-10-31T11:53:16;17.02;;;9.35;;
9749;SDS011;4914;43.218;27.908;2022-10-31T11:55:45;112.57;;;14.35;;
9749;SDS011;4914;43.218;27.908;2022-10-31T11:58:22;29.73;;;9.65;;
9749;SDS011;4914;43.218;27.908;2022-10-31T12:00:51;213.30;;;19.70;;
9749;SDS011;4914;43.218;27.908;2022-10-31T12:06:19;14.25;;;8.60;;
9749;SDS011;4914;43.218;27.908;2022-10-31T12:08:49;16.48;;;8.65;;
9749;SDS011;4914;43.218;27.908;2022-10-31T12:11:22;15.82;;;8.90;;
9749;SDS011;4914;43.218;27.908;2022-10-31T12:14:05;16.15;;;8.65;;
9749;SDS011;4914;43.218;27.908;2022-10-31T12:16:44;17.42;;;8.95;;
9749;SDS011;4914;43.218;27.908;2022-10-31T12:19:17;20.38;;;9.68;;
9749;SDS011;4914;43.218;27.908;2022-10-31T12:22:04;19.35;;;9.55;;
9749;SDS011;4914;43.218;27.908;2022-10-31T12:24:38;16.55;;;9.10;;
9749;SDS011;4914;43.218;27.908;2022-10-31T12:27:17;14.13;;;9.18;;
9749;SDS011;4914;43.218;27.908;2022-10-31T12:30:01;15.88;;;9.30;;
9749;SDS011;4914;43.218;27.908;2022-10-31T12:32:39;14.93;;;9.45;;
9749;SDS011;4914;43.218;27.908;2022-10-31T12:35:25;18.27;;;10.02;;
9749;SDS011;4914;43.218;27.908;2022-10-31T12:38:05;12.30;;;9.30;;
9749;SDS011;4914;43.218;27.908;2022-10-31T12:40:47;19.35;;;9.50;;
9749;SDS011;4914;43.218;27.908;2022-10-31T12:43:31;17.80;;;10.02;;
9749;SDS011;4914;43.218;27.908;2022-10-31T12:46:02;14.50;;;10.00;;
9749;SDS011;4914;43.218;27.908;2022-10-31T12:48:38;13.27;;;9.82;;
9749;SDS011;4914;43.218;27.908;2022-10-31T12:51:19;16.08;;;10.57;;
9749;SDS011;4914;43.218;27.908;2022-10-31T12:53:59;13.52;;;10.68;;
9749;SDS011;4914;43.218;27.908;2022-10-31T12:56:42;16.45;;;10.35;;
9749;SDS011;4914;43.218;27.908;2022-10-31T12:59:20;15.73;;;10.20;;
9749;SDS011;4914;43.218;27.908;2022-10-31T13:01:54;12.93;;;9.88;;
9749;SDS011;4914;43.218;27.908;2022-10-31T13:04:31;11.77;;;9.52;;
9749;SDS011;4914;43.218;27.908;2022-10-31T13:07:05;11.13;;;9.07;;
9749;SDS011;4914;43.218;27.908;2022-10-31T13:09:41;12.35;;;9.60;;
9749;SDS011;4914;43.218;27.908;2022-10-31T13:12:11;11.25;;;9.65;;
9749;SDS011;4914;43.218;27.908;2022-10-31T13:14:42;19.33;;;10.55;;
9749;SDS011;4914;43.218;27.908;2022-10-31T13:17:13;13.85;;;10.60;;
9749;SDS011;4914;43.218;27.908;2022-10-31T13:19:47;15.80;;;10.55;;
9749;SDS011;4914;43.218;27.908;2022-10-31T13:22:16;16.63;;;10.15;;
9749;SDS011;4914;43.218;27.908;2022-10-31T13:24:52;15.05;;;11.00;;
9749;SDS011;4914;43.218;27.908;2022-10-31T13:27:24;17.42;;;11.15;;
9749;SDS011;4914;43.218;27.908;2022-10-31T13:29:56;18.95;;;10.60;;
9749;SDS011;4914;43.218;27.908;2022-10-31T13:32:28;30.70;;;11.40;;
9749;SDS011;4914;43.218;27.908;2022-10-31T13:35:04;21.60;;;10.57;;
9749;SDS011;4914;43.218;27.908;2022-10-31T13:37:39;14.93;;;10.15;;
9749;SDS011;4914;43.218;27.908;2022-10-31T13:40:14;12.75;;;10.65;;
9749;SDS011;4914;43.218;27.908;2022-10-31T13:42:51;17.52;;;12.38;;
9749;SDS011;4914;43.218;27.908;2022-10-31T13:45:25;11.77;;;9.93;;
9749;SDS011;4914;43.218;27.908;2022-10-31T13:47:56;20.00;;;10.98;;
9749;SDS011;4914;43.218;27.908;2022-10-31T13:50:25;15.77;;;11.38;;
9749;SDS011;4914;43.218;27.908;2022-10-31T13:53:09;20.70;;;13.05;;
9749;SDS011;4914;43.218;27.908;2022-10-31T13:55:40;17.77;;;11.13;;
9749;SDS011;4914;43.218;27.908;2022-10-31T14:00:58;13.45;;;10.50;;
9749;SDS011;4914;43.218;27.908;2022-10-31T14:03:28;13.35;;;10.43;;
9749;SDS011;4914;43.218;27.908;2022-10-31T14:05:57;19.70;;;12.90;;
9749;SDS011;4914;43.218;27.908;2022-10-31T14:08:24;14.73;;;11.38;;
9749;SDS011;4914;43.218;27.908;2022-10-31T14:10:53;13.02;;;11.70;;
9749;SDS011;4914;43.218;27.908;2022-10-31T14:13:22;19.98;;;10.75;;
9749;SDS011;4914;43.218;27.908;2022-10-31T14:15:56;42.65;;;12.00;;
9749;SDS011;4914;43.218;27.908;2022-10-31T14:18:25;21.70;;;11.60;;
9749;SDS011;4914;43.218;27.908;2022-10-31T14:20:57;17.48;;;10.95;;
9749;SDS011;4914;43.218;27.908;2022-10-31T14:26:18;17.73;;;12.32;;
9749;SDS011;4914;43.218;27.908;2022-10-31T14:28:56;21.58;;;11.80;;
9749;SDS011;4914;43.218;27.908;2022-10-31T14:31:31;20.20;;;12.25;;
9749;SDS011;4914;43.218;27.908;2022-10-31T14:34:02;23.60;;;11.90;;
9749;SDS011;4914;43.218;27.908;2022-10-31T14:42:44;17.15;;;11.65;;
9749;SDS011;4914;43.218;27.908;2022-10-31T14:45:29;23.77;;;12.40;;
9749;SDS011;4914;43.218;27.908;2022-10-31T14:48:12;17.55;;;12.38;;
9749;SDS011;4914;43.218;27.908;2022-10-31T14:50:51;25.75;;;13.30;;
9749;SDS011;4914;43.218;27.908;2022-10-31T14:53:22;21.17;;;12.70;;
9749;SDS011;4914;43.218;27.908;2022-10-31T14:55:53;30.13;;;12.75;;
9749;SDS011;4914;43.218;27.908;2022-10-31T14:58:23;15.93;;;11.75;;
9749;SDS011;4914;43.218;27.908;2022-10-31T15:00:56;25.38;;;12.30;;
9749;SDS011;4914;43.218;27.908;2022-10-31T15:03:25;25.60;;;13.88;;
9749;SDS011;4914;43.218;27.908;2022-10-31T15:05:58;23.48;;;13.00;;
9749;SDS011;4914;43.218;27.908;2022-10-31T15:08:31;23.02;;;12.65;;
9749;SDS011;4914;43.218;27.908;2022-10-31T15:11:02;20.40;;;13.77;;
9749;SDS011;4914;43.218;27.908;2022-10-31T15:13:40;19.30;;;13.35;;
9749;SDS011;4914;43.218;27.908;2022-10-31T15:16:08;26.33;;;14.68;;
9749;SDS011;4914;43.218;27.908;2022-10-31T15:18:39;30.48;;;18.92;;